BOGEY11 KNFL-KNFL
Flight info
| Callsign | BOGEY11 |
|---|---|
| Flight time | 1h 3m |
| Altitude | 20000 |
| Route | NFL |
| Aircraft | F16/M-VD/C |
Departure
| Time | 2026-04-19 12:29 |
|---|---|
| Airport | Fallon Naval Air Station (KNFL) |
Arrival
| Time | 2026-04-19 13:33 |
|---|---|
| Airport | Fallon Naval Air Station (KNFL) |
| Time | Latitude | Longitude | Altitude | Speed | Heading |
|---|---|---|---|---|---|
| 2026-04-19 12:18 | 39.42027 | -118.70743 | 3937 ft | 0 kts | 276° |
| 2026-04-19 12:23 | 39.42023 | -118.70736 | 3937 ft | 0 kts | 82° |
| 2026-04-19 12:25 | 39.42024 | -118.70724 | 3937 ft | 7 kts | 88° |
| 2026-04-19 12:25 | 39.42008 | -118.70622 | 3937 ft | 8 kts | 150° |
| 2026-04-19 12:25 | 39.41973 | -118.70594 | 3937 ft | 9 kts | 150° |
| 2026-04-19 12:26 | 39.41875 | -118.70484 | 3937 ft | 6 kts | 36° |
| 2026-04-19 12:26 | 39.41896 | -118.70444 | 3937 ft | 10 kts | 115° |
| 2026-04-19 12:26 | 39.41805 | -118.70340 | 3936 ft | 25 kts | 146° |
| 2026-04-19 12:26 | 39.41634 | -118.70189 | 3936 ft | 35 kts | 146° |
| 2026-04-19 12:27 | 39.41428 | -118.69996 | 3936 ft | 32 kts | 150° |
| 2026-04-19 12:27 | 39.41332 | -118.69920 | 3936 ft | 11 kts | 145° |
| 2026-04-19 12:27 | 39.41222 | -118.69821 | 3935 ft | 27 kts | 140° |
| 2026-04-19 12:27 | 39.41031 | -118.69650 | 3935 ft | 39 kts | 142° |
| 2026-04-19 12:28 | 39.40553 | -118.69217 | 3934 ft | 37 kts | 140° |
| 2026-04-19 12:28 | 39.40354 | -118.69045 | 3934 ft | 32 kts | 147° |
| 2026-04-19 12:28 | 39.40290 | -118.68829 | 3934 ft | 28 kts | 58° |
| 2026-04-19 12:29 | 39.40395 | -118.68635 | 3934 ft | 26 kts | 43° |
| 2026-04-19 12:29 | 39.40783 | -118.68918 | 3935 ft | 159 kts | 325° |
| 2026-04-19 12:29 | 39.42003 | -118.69960 | 4716 ft | 216 kts | 327° |
| 2026-04-19 12:29 | 39.43257 | -118.71022 | 5857 ft | 226 kts | 325° |
| 2026-04-19 12:30 | 39.44623 | -118.72208 | 7088 ft | 239 kts | 324° |
| 2026-04-19 12:30 | 39.46034 | -118.73284 | 8267 ft | 240 kts | 350° |
| 2026-04-19 12:30 | 39.47751 | -118.73049 | 8899 ft | 259 kts | 15° |
| 2026-04-19 12:30 | 39.49487 | -118.72259 | 9680 ft | 268 kts | 26° |
| 2026-04-19 12:31 | 39.51081 | -118.71010 | 10465 ft | 267 kts | 40° |
| 2026-04-19 12:31 | 39.52349 | -118.69345 | 11392 ft | 259 kts | 57° |
| 2026-04-19 12:31 | 39.53122 | -118.67324 | 12430 ft | 243 kts | 80° |
| 2026-04-19 12:31 | 39.53213 | -118.65235 | 13554 ft | 227 kts | 96° |
| 2026-04-19 12:32 | 39.53161 | -118.63165 | 14199 ft | 242 kts | 96° |
| 2026-04-19 12:32 | 39.53089 | -118.60852 | 14268 ft | 270 kts | 96° |
| 2026-04-19 12:32 | 39.53000 | -118.58325 | 14416 ft | 290 kts | 96° |
| 2026-04-19 12:32 | 39.52898 | -118.55643 | 14638 ft | 306 kts | 96° |
| 2026-04-19 12:33 | 39.52785 | -118.52824 | 14917 ft | 320 kts | 96° |
| 2026-04-19 12:33 | 39.52662 | -118.49884 | 15244 ft | 333 kts | 96° |
| 2026-04-19 12:33 | 39.52529 | -118.46838 | 15635 ft | 345 kts | 96° |
| 2026-04-19 12:33 | 39.52387 | -118.43689 | 16071 ft | 355 kts | 96° |
| 2026-04-19 12:34 | 39.52238 | -118.40461 | 16574 ft | 363 kts | 96° |
| 2026-04-19 12:34 | 39.52083 | -118.37164 | 17130 ft | 369 kts | 96° |
| 2026-04-19 12:34 | 39.51923 | -118.33818 | 17745 ft | 373 kts | 96° |
| 2026-04-19 12:34 | 39.51765 | -118.30508 | 18373 ft | 373 kts | 97° |
| 2026-04-19 12:35 | 39.51605 | -118.27158 | 18983 ft | 371 kts | 97° |
| 2026-04-19 12:35 | 39.51451 | -118.23856 | 19616 ft | 364 kts | 97° |
| 2026-04-19 12:35 | 39.51298 | -118.20549 | 19902 ft | 374 kts | 97° |
| 2026-04-19 12:35 | 39.51132 | -118.17121 | 19905 ft | 389 kts | 97° |
| 2026-04-19 12:36 | 39.50953 | -118.13558 | 19927 ft | 405 kts | 97° |
| 2026-04-19 12:36 | 39.50860 | -118.09825 | 19924 ft | 426 kts | 88° |
| 2026-04-19 12:36 | 39.51379 | -118.05928 | 19921 ft | 447 kts | 81° |
| 2026-04-19 12:36 | 39.52004 | -118.01985 | 19907 ft | 445 kts | 81° |
| 2026-04-19 12:37 | 39.52627 | -117.98052 | 19912 ft | 445 kts | 81° |
| 2026-04-19 12:37 | 39.53250 | -117.94121 | 19920 ft | 445 kts | 81° |
| 2026-04-19 12:37 | 39.53864 | -117.90250 | 19914 ft | 445 kts | 81° |
| 2026-04-19 12:37 | 39.54487 | -117.86313 | 19919 ft | 446 kts | 81° |
| 2026-04-19 12:38 | 39.55110 | -117.82382 | 19914 ft | 446 kts | 81° |
| 2026-04-19 12:38 | 39.55734 | -117.78443 | 19917 ft | 446 kts | 81° |
| 2026-04-19 12:38 | 39.56357 | -117.74508 | 19917 ft | 446 kts | 81° |
| 2026-04-19 12:38 | 39.56983 | -117.70555 | 19923 ft | 446 kts | 81° |
| 2026-04-19 12:39 | 39.57607 | -117.66614 | 19923 ft | 446 kts | 81° |
| 2026-04-19 12:39 | 39.58230 | -117.62672 | 19935 ft | 446 kts | 81° |
| 2026-04-19 12:39 | 39.58855 | -117.58726 | 19954 ft | 446 kts | 81° |
| 2026-04-19 12:39 | 39.59479 | -117.54783 | 19974 ft | 446 kts | 81° |
| 2026-04-19 12:40 | 39.60102 | -117.50847 | 19995 ft | 446 kts | 81° |
| 2026-04-19 12:40 | 39.60727 | -117.46892 | 20013 ft | 447 kts | 81° |
| 2026-04-19 12:40 | 39.61344 | -117.42990 | 20027 ft | 447 kts | 81° |
| 2026-04-19 12:40 | 39.61968 | -117.39044 | 20039 ft | 447 kts | 81° |
| 2026-04-19 12:41 | 39.62592 | -117.35097 | 20047 ft | 447 kts | 81° |
| 2026-04-19 12:41 | 39.63216 | -117.31149 | 20053 ft | 447 kts | 81° |
| 2026-04-19 12:41 | 39.63839 | -117.27201 | 20061 ft | 447 kts | 81° |
| 2026-04-19 12:41 | 39.64464 | -117.23243 | 20062 ft | 447 kts | 81° |
| 2026-04-19 12:42 | 39.65089 | -117.19289 | 20062 ft | 447 kts | 81° |
| 2026-04-19 12:42 | 39.65713 | -117.15333 | 20058 ft | 447 kts | 81° |
| 2026-04-19 12:42 | 39.66339 | -117.11371 | 20053 ft | 447 kts | 81° |
| 2026-04-19 12:42 | 39.66962 | -117.07424 | 20041 ft | 447 kts | 81° |
| 2026-04-19 12:43 | 39.67586 | -117.03465 | 20032 ft | 447 kts | 81° |
| 2026-04-19 12:43 | 39.68209 | -116.99515 | 20020 ft | 447 kts | 81° |
| 2026-04-19 12:43 | 39.68833 | -116.95561 | 20011 ft | 447 kts | 81° |
| 2026-04-19 12:43 | 39.69456 | -116.91607 | 19999 ft | 447 kts | 81° |
| 2026-04-19 12:44 | 39.70080 | -116.87654 | 19983 ft | 447 kts | 81° |
| 2026-04-19 12:44 | 39.70703 | -116.83698 | 19975 ft | 447 kts | 81° |
| 2026-04-19 12:44 | 39.71327 | -116.79743 | 19980 ft | 447 kts | 81° |
| 2026-04-19 12:44 | 39.71951 | -116.75785 | 19978 ft | 447 kts | 81° |
| 2026-04-19 12:45 | 39.72717 | -116.71932 | 19935 ft | 446 kts | 62° |
| 2026-04-19 12:45 | 39.74968 | -116.69401 | 19803 ft | 427 kts | 14° |
| 2026-04-19 12:45 | 39.77854 | -116.68970 | 19884 ft | 415 kts | 2° |
| 2026-04-19 12:45 | 39.80740 | -116.68743 | 19934 ft | 414 kts | 2° |
| 2026-04-19 12:46 | 39.83617 | -116.68517 | 19955 ft | 414 kts | 2° |
| 2026-04-19 12:46 | 39.86495 | -116.68290 | 19967 ft | 414 kts | 2° |
| 2026-04-19 12:46 | 39.89380 | -116.68063 | 19972 ft | 415 kts | 2° |
| 2026-04-19 12:46 | 39.92228 | -116.67839 | 19974 ft | 415 kts | 2° |
| 2026-04-19 12:47 | 39.95151 | -116.67610 | 19975 ft | 415 kts | 2° |
| 2026-04-19 12:47 | 39.98002 | -116.67386 | 19972 ft | 416 kts | 2° |
| 2026-04-19 12:47 | 40.00906 | -116.67158 | 19974 ft | 417 kts | 2° |
| 2026-04-19 12:47 | 40.03815 | -116.66929 | 19974 ft | 418 kts | 2° |
| 2026-04-19 12:48 | 40.06726 | -116.66701 | 19974 ft | 419 kts | 2° |
| 2026-04-19 12:48 | 40.09648 | -116.66472 | 19977 ft | 421 kts | 2° |
| 2026-04-19 12:48 | 40.12580 | -116.66242 | 19976 ft | 423 kts | 2° |
| 2026-04-19 12:48 | 40.15529 | -116.66012 | 19975 ft | 424 kts | 2° |
| 2026-04-19 12:49 | 40.18442 | -116.65784 | 19976 ft | 426 kts | 2° |
| 2026-04-19 12:49 | 40.21389 | -116.65554 | 19976 ft | 409 kts | 2° |
| 2026-04-19 12:49 | 40.24023 | -116.65106 | 19988 ft | 353 kts | 18° |
| 2026-04-19 12:49 | 40.25964 | -116.63653 | 20002 ft | 297 kts | 47° |
| 2026-04-19 12:50 | 40.26901 | -116.61517 | 20006 ft | 253 kts | 86° |
| 2026-04-19 12:50 | 40.26771 | -116.59394 | 20003 ft | 234 kts | 104° |
| 2026-04-19 12:50 | 40.26444 | -116.57101 | 19993 ft | 259 kts | 104° |
| 2026-04-19 12:50 | 40.26120 | -116.54822 | 19989 ft | 251 kts | 104° |
| 2026-04-19 12:51 | 40.25789 | -116.52609 | 19824 ft | 243 kts | 122° |
| 2026-04-19 12:51 | 40.24448 | -116.51580 | 18283 ft | 192 kts | 168° |
| 2026-04-19 12:51 | 40.22452 | -116.51205 | 15764 ft | 344 kts | 172° |
| 2026-04-19 12:51 | 40.20122 | -116.51044 | 17789 ft | 377 kts | 170° |
| 2026-04-19 12:52 | 40.17230 | -116.51488 | 18340 ft | 481 kts | 194° |
| 2026-04-19 12:52 | 40.13508 | -116.52862 | 19075 ft | 632 kts | 198° |
| 2026-04-19 12:52 | 40.08941 | -116.54932 | 19618 ft | 715 kts | 201° |
| 2026-04-19 12:52 | 40.04711 | -116.57175 | 19815 ft | 603 kts | 204° |
| 2026-04-19 12:53 | 40.01299 | -116.59630 | 19476 ft | 523 kts | 231° |
| 2026-04-19 12:53 | 40.02490 | -116.61607 | 18531 ft | 394 kts | 20° |
| 2026-04-19 12:53 | 40.04964 | -116.60380 | 18010 ft | 388 kts | 21° |
| 2026-04-19 12:53 | 40.07522 | -116.59095 | 17819 ft | 396 kts | 21° |
| 2026-04-19 12:54 | 40.10117 | -116.57785 | 17797 ft | 404 kts | 21° |
| 2026-04-19 12:54 | 40.12761 | -116.56449 | 17788 ft | 412 kts | 21° |
| 2026-04-19 12:54 | 40.15471 | -116.55078 | 17792 ft | 421 kts | 21° |
| 2026-04-19 12:54 | 40.18282 | -116.53884 | 17777 ft | 427 kts | 9° |
| 2026-04-19 12:55 | 40.21271 | -116.53617 | 17773 ft | 434 kts | 1° |
| 2026-04-19 12:55 | 40.24296 | -116.53462 | 17766 ft | 446 kts | 1° |
| 2026-04-19 12:55 | 40.27433 | -116.53303 | 17768 ft | 453 kts | 1° |
| 2026-04-19 12:55 | 40.30584 | -116.53145 | 17774 ft | 453 kts | 1° |
| 2026-04-19 12:56 | 40.33736 | -116.53010 | 17748 ft | 451 kts | 352° |
| 2026-04-19 12:56 | 40.35211 | -116.55572 | 17647 ft | 354 kts | 248° |
| 2026-04-19 12:56 | 40.33478 | -116.56315 | 17712 ft | 306 kts | 122° |
| 2026-04-19 12:56 | 40.34161 | -116.54300 | 18188 ft | 271 kts | 344° |
| 2026-04-19 12:57 | 40.35721 | -116.55344 | 18281 ft | 248 kts | 324° |
| 2026-04-19 12:57 | 40.37494 | -116.57058 | 15412 ft | 372 kts | 318° |
| 2026-04-19 12:57 | 40.39779 | -116.58853 | 14196 ft | 388 kts | 9° |
| 2026-04-19 12:57 | 40.41000 | -116.56613 | 14409 ft | 312 kts | 122° |
| 2026-04-19 12:58 | 40.39177 | -116.55728 | 14094 ft | 302 kts | 176° |
| 2026-04-19 12:58 | 40.37019 | -116.55715 | 13962 ft | 317 kts | 184° |
| 2026-04-19 12:58 | 40.34761 | -116.55987 | 13874 ft | 335 kts | 187° |
| 2026-04-19 12:58 | 40.33173 | -116.57566 | 13485 ft | 328 kts | 287° |
| 2026-04-19 12:59 | 40.35104 | -116.58432 | 12567 ft | 346 kts | 12° |
| 2026-04-19 12:59 | 40.37542 | -116.57361 | 11673 ft | 394 kts | 26° |
| 2026-04-19 12:59 | 40.40018 | -116.55360 | 10744 ft | 444 kts | 39° |
| 2026-04-19 12:59 | 40.42372 | -116.52528 | 9774 ft | 483 kts | 49° |
| 2026-04-19 13:00 | 40.43047 | -116.49495 | 9198 ft | 374 kts | 214° |
| 2026-04-19 13:00 | 40.40477 | -116.51793 | 9733 ft | 545 kts | 217° |
| 2026-04-19 13:00 | 40.38562 | -116.55035 | 13631 ft | 371 kts | 294° |
| 2026-04-19 13:00 | 40.40373 | -116.56957 | 15431 ft | 288 kts | 290° |
| 2026-04-19 13:01 | 40.39897 | -116.58834 | 17184 ft | 197 kts | 221° |
| 2026-04-19 13:01 | 40.38923 | -116.59623 | 18781 ft | 137 kts | 184° |
| 2026-04-19 13:01 | 40.38094 | -116.59977 | 17715 ft | 125 kts | 216° |
| 2026-04-19 13:01 | 40.37075 | -116.60501 | 14109 ft | 0 kts | 197° |
| 2026-04-19 13:02 | 40.36175 | -116.60843 | 15560 ft | 77 kts | 142° |
| 2026-04-19 13:02 | 40.35696 | -116.60613 | 13323 ft | 74 kts | 173° |
| 2026-04-19 13:02 | 40.34271 | -116.60114 | 7078 ft | 422 kts | 167° |
| 2026-04-19 13:02 | 40.35073 | -116.61503 | 12699 ft | 340 kts | 309° |
| 2026-04-19 13:03 | 40.36832 | -116.64166 | 14598 ft | 384 kts | 309° |
| 2026-04-19 13:03 | 40.38508 | -116.66693 | 16233 ft | 349 kts | 309° |
| 2026-04-19 13:03 | 40.40112 | -116.69103 | 17084 ft | 343 kts | 309° |
| 2026-04-19 13:03 | 40.40739 | -116.71632 | 16816 ft | 339 kts | 242° |
| 2026-04-19 13:04 | 40.39488 | -116.74937 | 16813 ft | 491 kts | 242° |
| 2026-04-19 13:04 | 40.37645 | -116.79709 | 16867 ft | 680 kts | 242° |
| 2026-04-19 13:04 | 40.35263 | -116.85810 | 17034 ft | 811 kts | 242° |
| 2026-04-19 13:04 | 40.32524 | -116.92788 | 17223 ft | 908 kts | 242° |
| 2026-04-19 13:05 | 40.28875 | -116.99788 | 17203 ft | 998 kts | 192° |
| 2026-04-19 13:05 | 40.21865 | -116.97675 | 13468 ft | 1054 kts | 171° |
| 2026-04-19 13:05 | 40.15623 | -116.96201 | 10676 ft | 783 kts | 165° |
| 2026-04-19 13:05 | 40.10939 | -116.94940 | 9945 ft | 615 kts | 182° |
| 2026-04-19 13:06 | 40.06270 | -116.96852 | 8432 ft | 803 kts | 204° |
| 2026-04-19 13:06 | 39.98898 | -117.01829 | 6907 ft | 936 kts | 217° |
| 2026-04-19 13:06 | 39.92143 | -117.06949 | 6736 ft | 904 kts | 199° |
| 2026-04-19 13:06 | 39.86748 | -117.09278 | 7122 ft | 747 kts | 197° |
| 2026-04-19 13:07 | 39.81969 | -117.11202 | 6785 ft | 710 kts | 196° |
| 2026-04-19 13:07 | 39.77451 | -117.13979 | 6045 ft | 705 kts | 204° |
| 2026-04-19 13:07 | 39.73304 | -117.16513 | 6508 ft | 632 kts | 212° |
| 2026-04-19 13:07 | 39.69315 | -117.17906 | 6822 ft | 584 kts | 177° |
| 2026-04-19 13:08 | 39.68422 | -117.17895 | 6708 ft | 578 kts | 182° |
| 2026-04-19 13:08 | 39.65813 | -117.17329 | 5790 ft | 526 kts | 120° |
| 2026-04-19 13:09 | 39.65622 | -117.16862 | 5660 ft | 514 kts | 112° |
| 2026-04-19 13:10 | 39.64144 | -117.13091 | 7341 ft | 462 kts | 129° |
| 2026-04-19 13:10 | 39.61744 | -117.10608 | 8676 ft | 444 kts | 156° |
| 2026-04-19 13:10 | 39.58705 | -117.09972 | 9446 ft | 483 kts | 192° |
| 2026-04-19 13:10 | 39.55343 | -117.13121 | 7305 ft | 746 kts | 227° |
| 2026-04-19 13:11 | 39.51861 | -117.17937 | 7072 ft | 684 kts | 226° |
| 2026-04-19 13:11 | 39.48764 | -117.22232 | 7337 ft | 627 kts | 226° |
| 2026-04-19 13:11 | 39.45869 | -117.26255 | 7589 ft | 599 kts | 226° |
| 2026-04-19 13:11 | 39.42933 | -117.26538 | 7289 ft | 715 kts | 82° |
| 2026-04-19 13:12 | 39.44286 | -117.22859 | 6552 ft | 613 kts | 68° |
| 2026-04-19 13:12 | 39.48527 | -117.18723 | 7393 ft | 543 kts | 23° |
| 2026-04-19 13:12 | 39.50069 | -117.17976 | 16701 ft | 229 kts | 15° |
| 2026-04-19 13:12 | 39.50378 | -117.18256 | 27302 ft | 75 kts | 238° |
| 2026-04-19 13:13 | 39.50220 | -117.18926 | 31926 ft | 89 kts | 252° |
| 2026-04-19 13:13 | 39.50082 | -117.19623 | 30388 ft | 83 kts | 206° |
| 2026-04-19 13:13 | 39.50416 | -117.19654 | 22967 ft | 197 kts | 2° |
| 2026-04-19 13:13 | 39.52172 | -117.17230 | 19473 ft | 260 kts | 55° |
| 2026-04-19 13:14 | 39.52752 | -117.15996 | 18856 ft | 201 kts | 92° |
| 2026-04-19 13:14 | 39.53259 | -117.14706 | 13656 ft | 306 kts | 70° |
| 2026-04-19 13:14 | 39.53661 | -117.13748 | 15755 ft | 15 kts | 304° |
| 2026-04-19 13:14 | 39.53864 | -117.13621 | 13001 ft | 103 kts | 6° |
| 2026-04-19 13:15 | 39.53481 | -117.13672 | 7859 ft | 275 kts | 195° |
| 2026-04-19 13:15 | 39.51982 | -117.14462 | 8269 ft | 227 kts | 202° |
| 2026-04-19 13:15 | 39.50452 | -117.15309 | 8898 ft | 250 kts | 202° |
| 2026-04-19 13:15 | 39.48796 | -117.16223 | 9697 ft | 265 kts | 202° |
| 2026-04-19 13:16 | 39.47065 | -117.17175 | 10569 ft | 274 kts | 202° |
| 2026-04-19 13:16 | 39.45299 | -117.18144 | 11523 ft | 276 kts | 202° |
| 2026-04-19 13:16 | 39.43554 | -117.19102 | 12547 ft | 273 kts | 202° |
| 2026-04-19 13:16 | 39.41828 | -117.20045 | 13676 ft | 264 kts | 202° |
| 2026-04-19 13:17 | 39.40217 | -117.21385 | 14076 ft | 344 kts | 240° |
| 2026-04-19 13:17 | 39.40918 | -117.24916 | 14023 ft | 528 kts | 301° |
| 2026-04-19 13:17 | 39.43337 | -117.29858 | 14026 ft | 755 kts | 301° |
| 2026-04-19 13:17 | 39.46387 | -117.36131 | 14069 ft | 884 kts | 301° |
| 2026-04-19 13:18 | 39.49839 | -117.43255 | 14089 ft | 984 kts | 301° |
| 2026-04-19 13:18 | 39.53373 | -117.50555 | 14075 ft | 813 kts | 301° |
| 2026-04-19 13:18 | 39.55897 | -117.55717 | 13988 ft | 572 kts | 301° |
| 2026-04-19 13:18 | 39.57853 | -117.59672 | 13840 ft | 469 kts | 301° |
| 2026-04-19 13:19 | 39.59441 | -117.62853 | 13622 ft | 390 kts | 301° |
| 2026-04-19 13:19 | 39.61114 | -117.66210 | 13415 ft | 508 kts | 301° |
| 2026-04-19 13:19 | 39.63252 | -117.70559 | 13258 ft | 635 kts | 301° |
| 2026-04-19 13:19 | 39.65817 | -117.75822 | 13157 ft | 737 kts | 301° |
| 2026-04-19 13:20 | 39.68675 | -117.81714 | 13071 ft | 797 kts | 301° |
| 2026-04-19 13:20 | 39.71710 | -117.87989 | 12946 ft | 839 kts | 301° |
| 2026-04-19 13:20 | 39.74867 | -117.94531 | 12783 ft | 869 kts | 301° |
| 2026-04-19 13:20 | 39.78129 | -118.01301 | 12603 ft | 891 kts | 301° |
| 2026-04-19 13:21 | 39.81450 | -118.08202 | 12387 ft | 907 kts | 301° |
| 2026-04-19 13:21 | 39.84802 | -118.15217 | 12159 ft | 920 kts | 299° |
| 2026-04-19 13:21 | 39.86735 | -118.22807 | 9407 ft | 762 kts | 281° |
| 2026-04-19 13:21 | 39.87302 | -118.27405 | 6942 ft | 338 kts | 272° |
| 2026-04-19 13:22 | 39.87418 | -118.29787 | 5994 ft | 220 kts | 272° |
| 2026-04-19 13:22 | 39.87522 | -118.31828 | 4829 ft | 273 kts | 271° |
| 2026-04-19 13:22 | 39.87500 | -118.34720 | 4732 ft | 369 kts | 268° |
| 2026-04-19 13:22 | 39.85955 | -118.36928 | 5766 ft | 349 kts | 141° |
| 2026-04-19 13:23 | 39.85088 | -118.34245 | 6346 ft | 377 kts | 94° |
| 2026-04-19 13:23 | 39.84933 | -118.30201 | 4359 ft | 532 kts | 94° |
| 2026-04-19 13:23 | 39.84890 | -118.24689 | 4134 ft | 674 kts | 47° |
| 2026-04-19 13:23 | 39.88289 | -118.27288 | 4096 ft | 754 kts | 300° |
| 2026-04-19 13:24 | 39.90789 | -118.33665 | 3954 ft | 817 kts | 297° |
| 2026-04-19 13:24 | 39.91452 | -118.35707 | 14075 ft | 418 kts | 109° |
| 2026-04-19 13:24 | 39.91018 | -118.35070 | 7047 ft | 287 kts | 250° |
| 2026-04-19 13:24 | 39.89090 | -118.38078 | 3932 ft | 479 kts | 212° |
| 2026-04-19 13:25 | 39.86493 | -118.41222 | 4216 ft | 526 kts | 231° |
| 2026-04-19 13:25 | 39.83666 | -118.44795 | 4142 ft | 635 kts | 224° |
| 2026-04-19 13:25 | 39.80147 | -118.49190 | 3922 ft | 751 kts | 224° |
| 2026-04-19 13:25 | 39.76210 | -118.54121 | 3955 ft | 813 kts | 224° |
| 2026-04-19 13:26 | 39.72080 | -118.59292 | 4009 ft | 855 kts | 224° |
| 2026-04-19 13:26 | 39.67714 | -118.64753 | 4090 ft | 883 kts | 224° |
| 2026-04-19 13:26 | 39.63546 | -118.69963 | 4334 ft | 770 kts | 224° |
| 2026-04-19 13:26 | 39.59901 | -118.74523 | 4710 ft | 691 kts | 224° |
| 2026-04-19 13:27 | 39.56569 | -118.78695 | 5029 ft | 645 kts | 223° |
| 2026-04-19 13:27 | 39.53533 | -118.82760 | 5496 ft | 610 kts | 230° |
| 2026-04-19 13:27 | 39.51001 | -118.86978 | 6044 ft | 564 kts | 212° |
| 2026-04-19 13:27 | 39.47890 | -118.86584 | 5641 ft | 444 kts | 119° |
| 2026-04-19 13:28 | 39.46198 | -118.83461 | 5943 ft | 413 kts | 136° |
| 2026-04-19 13:28 | 39.43981 | -118.81219 | 6302 ft | 402 kts | 145° |
| 2026-04-19 13:28 | 39.41682 | -118.79119 | 6430 ft | 419 kts | 146° |
| 2026-04-19 13:28 | 39.39190 | -118.76862 | 6316 ft | 452 kts | 146° |
| 2026-04-19 13:29 | 39.36755 | -118.74764 | 6264 ft | 391 kts | 145° |
| 2026-04-19 13:29 | 39.34686 | -118.72721 | 6649 ft | 369 kts | 143° |
| 2026-04-19 13:29 | 39.32604 | -118.70584 | 6961 ft | 400 kts | 135° |
| 2026-04-19 13:29 | 39.32413 | -118.67253 | 5165 ft | 471 kts | 45° |
| 2026-04-19 13:30 | 39.35976 | -118.66046 | 5269 ft | 618 kts | 354° |
| 2026-04-19 13:30 | 39.40016 | -118.68208 | 4185 ft | 648 kts | 326° |
| 2026-04-19 13:30 | 39.42317 | -118.74254 | 4596 ft | 558 kts | 146° |
| 2026-04-19 13:31 | 39.39611 | -118.71582 | 4646 ft | 427 kts | 142° |
| 2026-04-19 13:31 | 39.37662 | -118.69395 | 4603 ft | 326 kts | 126° |
| 2026-04-19 13:31 | 39.38037 | -118.67720 | 5004 ft | 188 kts | 13° |
| 2026-04-19 13:31 | 39.39275 | -118.67592 | 4414 ft | 201 kts | 338° |
| 2026-04-19 13:32 | 39.40409 | -118.68574 | 3977 ft | 198 kts | 324° |
| 2026-04-19 13:32 | 39.41423 | -118.69487 | 3936 ft | 150 kts | 324° |
| 2026-04-19 13:32 | 39.42135 | -118.70127 | 3936 ft | 101 kts | 325° |
| 2026-04-19 13:32 | 39.42619 | -118.70552 | 3938 ft | 75 kts | 326° |
| 2026-04-19 13:33 | 39.42895 | -118.70881 | 3939 ft | 27 kts | 239° |
| 2026-04-19 13:33 | 39.42763 | -118.71000 | 3939 ft | 22 kts | 232° |
| 2026-04-19 13:33 | 39.42676 | -118.71159 | 3939 ft | 21 kts | 233° |
| 2026-04-19 13:33 | 39.42617 | -118.71172 | 3939 ft | 8 kts | 128° |
| 2026-04-19 13:34 | 39.42363 | -118.70844 | 3938 ft | 70 kts | 144° |
| 2026-04-19 13:34 | 39.42065 | -118.70576 | 3937 ft | 30 kts | 160° |
| 2026-04-19 13:34 | 39.41954 | -118.70710 | 3937 ft | 22 kts | 237° |
| 2026-04-19 13:34 | 39.41890 | -118.70841 | 3937 ft | 15 kts | 274° |
| 2026-04-19 13:35 | 39.41962 | -118.70916 | 3937 ft | 14 kts | 332° |
| 2026-04-19 13:35 | 39.42042 | -118.70986 | 3938 ft | 15 kts | 329° |
| 2026-04-19 13:35 | 39.42123 | -118.71003 | 3938 ft | 11 kts | 52° |
| 2026-04-19 13:35 | 39.42099 | -118.70977 | 3938 ft | 2 kts | 158° |
| 2026-04-19 13:36 | 39.42097 | -118.70975 | 3938 ft | 0 kts | 155° |